createdAt,value
2018-08-10T00:00:53.074Z,44.36
2018-08-10T00:05:56.809Z,44.46
2018-08-10T00:11:00.502Z,43.96
2018-08-10T00:16:04.216Z,44.11
2018-08-10T00:21:07.988Z,44.35
2018-08-10T00:26:11.707Z,43.89
2018-08-10T00:31:15.542Z,44.04
2018-08-10T00:36:19.291Z,44.68
2018-08-10T00:41:23.032Z,43.63
2018-08-10T00:46:26.827Z,43.46
2018-08-10T00:51:30.515Z,43.76
2018-08-10T00:56:34.253Z,43.60
2018-08-10T01:01:38.104Z,43.56
2018-08-10T01:06:41.874Z,43.55
2018-08-10T01:11:45.673Z,43.28
2018-08-10T01:16:49.374Z,43.56
2018-08-10T01:21:53.071Z,43.40
2018-08-10T01:26:56.823Z,44.16
2018-08-10T01:32:00.454Z,44.77
2018-08-10T01:37:04.132Z,45.53
2018-08-10T01:42:07.859Z,47.06
2018-08-10T01:47:11.520Z,47.44
2018-08-10T01:52:15.224Z,47.76
2018-08-10T01:57:18.956Z,47.66
2018-08-10T02:02:22.723Z,47.86
2018-08-10T02:07:26.489Z,48.29
2018-08-10T02:12:30.196Z,48.38
2018-08-10T02:17:33.782Z,47.85
2018-08-10T02:22:38.008Z,48.22
2018-08-10T02:27:42.702Z,48.06
2018-08-10T02:32:47.344Z,47.83
2018-08-10T02:37:51.090Z,48.56
2018-08-10T02:42:54.867Z,48.69
2018-08-10T02:47:58.518Z,48.59
2018-08-10T02:53:02.227Z,48.53
2018-08-10T02:58:05.821Z,48.66
2018-08-10T03:03:09.552Z,48.52
2018-08-10T03:08:13.218Z,47.43
2018-08-10T03:13:16.880Z,46.98
2018-08-10T03:18:20.573Z,46.06
2018-08-10T03:23:24.267Z,45.14
2018-08-10T03:28:27.929Z,45.14
2018-08-10T03:33:31.717Z,44.50
2018-08-10T03:38:35.344Z,42.61
2018-08-10T03:43:39.088Z,43.08
2018-08-10T03:48:42.798Z,44.42
2018-08-10T03:53:46.496Z,44.51
2018-08-10T03:58:50.128Z,45.29
2018-08-10T04:03:53.783Z,46.55
2018-08-10T04:08:57.426Z,46.51
2018-08-10T04:14:01.059Z,48.60
2018-08-10T04:19:04.652Z,47.71
2018-08-10T04:24:08.294Z,48.22
2018-08-10T04:29:12.080Z,47.94
2018-08-10T04:34:15.683Z,47.13
2018-08-10T04:39:19.357Z,45.87
2018-08-10T04:44:23.045Z,43.92
2018-08-10T04:49:26.805Z,42.62
2018-08-10T04:54:30.478Z,42.21
2018-08-10T04:59:34.061Z,43.42
2018-08-10T05:04:37.715Z,44.50
2018-08-10T05:09:41.702Z,44.89
2018-08-10T05:14:45.367Z,45.28
2018-08-10T05:19:49.001Z,45.45
2018-08-10T05:24:52.682Z,45.53
2018-08-10T05:29:56.358Z,45.58
2018-08-10T05:35:00.012Z,45.47
2018-08-10T05:40:05.144Z,45.99
2018-08-10T05:45:08.976Z,46.31
2018-08-10T05:50:12.639Z,46.92
2018-08-10T05:55:16.265Z,47.21
2018-08-10T06:00:19.886Z,47.73
2018-08-10T06:05:23.494Z,47.08
2018-08-10T06:10:27.160Z,45.46
2018-08-10T06:15:30.964Z,45.39
2018-08-10T06:20:34.559Z,44.98
2018-08-10T06:25:38.176Z,44.78
2018-08-10T06:30:41.830Z,44.85
2018-08-10T06:35:45.485Z,45.27
2018-08-10T06:40:49.094Z,45.27
2018-08-10T06:45:52.904Z,43.83
2018-08-10T06:50:56.612Z,43.29
2018-08-10T06:56:00.671Z,43.59
2018-08-10T07:01:04.381Z,43.23
2018-08-10T07:06:08.034Z,42.71
2018-08-10T07:11:11.670Z,42.73
2018-08-10T07:16:15.403Z,42.26
2018-08-10T07:21:19.047Z,43.56
2018-08-10T07:26:22.690Z,43.17
2018-08-10T07:31:26.333Z,42.31
2018-08-10T07:36:30.003Z,43.52
2018-08-10T07:41:33.652Z,42.79
2018-08-10T07:46:37.638Z,42.76
2018-08-10T07:51:41.282Z,42.72
2018-08-10T07:56:44.939Z,42.99
2018-08-10T08:01:48.585Z,42.62
2018-08-10T08:06:52.216Z,42.31
2018-08-10T08:11:56.029Z,41.86
2018-08-10T08:16:59.659Z,42.08
2018-08-10T08:22:10.647Z,42.15
2018-08-10T08:27:15.592Z,40.86
2018-08-10T08:32:19.223Z,42.22
2018-08-10T08:37:22.950Z,43.09
2018-08-10T08:42:26.657Z,42.05
2018-08-10T08:47:30.255Z,42.02
2018-08-10T08:52:33.995Z,42.35
2018-08-10T08:57:37.659Z,41.99
2018-08-10T09:02:41.293Z,42.36
2018-08-10T09:07:45.006Z,42.08
2018-08-10T09:12:48.618Z,41.53
2018-08-10T09:17:52.271Z,42.01
2018-08-10T09:22:55.925Z,43.10
2018-08-10T09:27:59.567Z,42.52
2018-08-10T09:33:03.263Z,41.92
2018-08-10T09:38:06.948Z,40.90
2018-08-10T09:43:10.577Z,40.24
2018-08-10T09:48:14.314Z,40.37
2018-08-10T09:53:18.030Z,41.19
2018-08-10T09:58:21.791Z,39.40
2018-08-10T10:03:26.878Z,39.21
2018-08-10T10:08:30.503Z,39.60
2018-08-10T10:13:34.190Z,37.11
2018-08-10T10:18:38.514Z,38.73
2018-08-10T10:23:42.091Z,38.10
2018-08-10T10:28:47.620Z,37.85
2018-08-10T10:39:32.470Z,36.57
2018-08-10T10:44:36.023Z,35.86
2018-08-10T10:49:39.690Z,35.62
2018-08-10T10:54:43.301Z,35.44
2018-08-10T10:59:46.976Z,35.03
2018-08-10T11:04:50.647Z,34.83
2018-08-10T11:09:54.261Z,35.30
2018-08-10T11:14:57.922Z,34.70
2018-08-10T11:20:01.638Z,34.49
2018-08-10T11:25:06.660Z,35.41
2018-08-10T11:30:10.959Z,34.81
2018-08-10T11:35:14.597Z,31.82
2018-08-10T11:40:18.298Z,33.24
2018-08-10T11:45:21.904Z,34.59
2018-08-10T11:50:25.575Z,35.18
2018-08-10T11:55:29.209Z,35.71
2018-08-10T12:00:32.803Z,35.54
2018-08-10T12:05:36.461Z,35.57
2018-08-10T12:10:40.158Z,35.63
2018-08-10T12:15:43.729Z,36.20
2018-08-10T12:20:47.537Z,36.50
2018-08-10T12:25:51.286Z,36.23
2018-08-10T12:30:55.170Z,36.84
2018-08-10T12:35:58.945Z,36.19
2018-08-10T12:41:02.677Z,36.41
2018-08-10T12:46:06.479Z,36.10
2018-08-10T12:51:10.271Z,36.01
2018-08-10T12:56:13.995Z,36.42
2018-08-10T13:01:17.698Z,36.28
2018-08-10T13:06:21.313Z,36.61
2018-08-10T13:11:24.941Z,36.46
2018-08-10T13:16:28.589Z,36.60
2018-08-10T13:21:32.342Z,36.64
2018-08-10T13:26:36.004Z,37.13
2018-08-10T13:31:39.738Z,35.96
2018-08-10T13:36:43.475Z,37.12
2018-08-10T13:41:47.149Z,36.79
2018-08-10T13:46:50.867Z,36.24
2018-08-10T13:51:55.041Z,36.52
2018-08-10T13:56:58.646Z,36.42
2018-08-10T14:02:02.316Z,35.55
2018-08-10T14:07:06.075Z,36.33
2018-08-10T14:12:09.732Z,29.54
2018-08-10T14:17:13.530Z,26.31
2018-08-10T14:22:17.130Z,25.78
2018-08-10T14:27:20.783Z,25.54
2018-08-10T14:32:24.467Z,25.83
2018-08-10T14:37:28.091Z,25.84
2018-08-10T14:42:31.672Z,26.12
2018-08-10T14:47:35.282Z,25.63
2018-08-10T14:52:38.898Z,25.99
2018-08-10T14:57:42.496Z,25.91
2018-08-10T15:02:46.754Z,26.28
2018-08-10T15:07:50.573Z,25.78
2018-08-10T15:12:54.477Z,25.28
2018-08-10T15:17:58.016Z,25.79
2018-08-10T15:23:01.627Z,25.53
2018-08-10T15:28:05.292Z,25.48
2018-08-10T15:33:09.781Z,25.17
2018-08-10T15:38:13.625Z,24.89
2018-08-10T15:43:17.326Z,24.24
2018-08-10T15:48:21.123Z,25.23
2018-08-10T15:53:24.809Z,24.47
2018-08-10T15:58:28.720Z,23.57
2018-08-10T16:03:32.385Z,24.08
2018-08-10T16:08:36.377Z,24.27
2018-08-10T16:13:42.050Z,24.62
2018-08-10T16:18:46.406Z,24.03
2018-08-10T16:23:51.681Z,23.02
2018-08-10T16:28:57.413Z,23.33
2018-08-10T16:34:01.795Z,22.60
2018-08-10T16:39:08.778Z,23.43
2018-08-10T16:44:13.430Z,23.25
2018-08-10T16:49:17.524Z,23.08
2018-08-10T16:54:22.081Z,22.97
2018-08-10T16:59:26.781Z,22.72
2018-08-10T17:04:30.442Z,23.65
2018-08-10T17:09:34.920Z,23.45
2018-08-10T17:14:39.541Z,24.66
2018-08-10T17:19:43.178Z,25.41
2018-08-10T17:24:48.956Z,23.19
2018-08-10T17:29:52.752Z,23.47
2018-08-10T17:34:56.491Z,23.59
2018-08-10T17:40:00.085Z,23.45
2018-08-10T17:45:04.066Z,23.66
2018-08-10T17:50:12.230Z,23.20
2018-08-10T17:55:17.816Z,23.73
2018-08-10T18:00:24.784Z,22.43
2018-08-10T18:05:28.886Z,22.45
2018-08-10T18:10:32.611Z,22.62
2018-08-10T18:15:36.470Z,22.93
2018-08-10T18:20:40.399Z,23.97
2018-08-10T18:25:44.233Z,23.54
2018-08-10T18:30:48.052Z,23.52
2018-08-10T18:35:51.785Z,24.58
2018-08-10T18:40:55.595Z,25.70
2018-08-10T18:45:59.193Z,25.46
2018-08-10T18:51:02.888Z,25.39
2018-08-10T18:56:07.632Z,25.04
2018-08-10T19:01:11.954Z,25.49
2018-08-10T19:06:17.204Z,26.23
2018-08-10T19:11:20.931Z,25.71
2018-08-10T19:16:24.657Z,26.62
2018-08-10T19:21:28.253Z,28.04
2018-08-10T19:26:31.855Z,27.58
2018-08-10T19:31:35.847Z,28.17
2018-08-10T19:36:39.486Z,28.00
2018-08-10T19:41:43.583Z,27.22
2018-08-10T19:46:47.255Z,27.45
2018-08-10T19:51:51.048Z,28.42
2018-08-10T19:56:54.701Z,28.43
2018-08-10T20:01:58.467Z,30.18
2018-08-10T20:07:02.532Z,29.80
2018-08-10T20:12:06.149Z,29.81
2018-08-10T20:17:13.517Z,30.31
2018-08-10T20:22:22.035Z,29.78
2018-08-10T20:27:36.085Z,30.51
2018-08-10T20:32:40.153Z,30.64
2018-08-10T20:37:44.286Z,30.83
2018-08-10T20:48:06.277Z,30.53
2018-08-10T20:53:14.583Z,30.36
2018-08-10T20:58:18.815Z,30.13
2018-08-10T21:03:22.818Z,31.15
2018-08-10T21:08:28.012Z,31.17
2018-08-10T21:13:31.999Z,30.91
2018-08-10T21:18:36.534Z,31.40
2018-08-10T21:23:42.023Z,31.57
2018-08-10T21:28:49.270Z,30.58
2018-08-10T21:33:53.189Z,31.53
2018-08-10T21:38:58.073Z,30.33
2018-08-10T21:44:02.268Z,31.06
2018-08-10T21:49:06.539Z,31.81
2018-08-10T21:54:10.904Z,30.92
2018-08-10T21:59:15.611Z,31.62
2018-08-10T22:04:19.910Z,31.29
2018-08-10T22:09:23.791Z,31.61
2018-08-10T22:14:32.876Z,31.76
2018-08-10T22:19:37.402Z,31.47
2018-08-10T22:24:41.330Z,31.51
2018-08-10T22:29:45.477Z,32.05
2018-08-10T22:34:49.742Z,30.92
2018-08-10T22:39:55.139Z,32.08
2018-08-10T22:44:59.046Z,31.87
2018-08-10T22:50:08.023Z,32.57
2018-08-10T22:55:11.952Z,31.48
2018-08-10T23:00:16.693Z,29.93
2018-08-10T23:05:21.587Z,30.76
2018-08-10T23:10:25.511Z,30.70
2018-08-10T23:15:29.956Z,31.09
2018-08-10T23:20:34.086Z,31.55
2018-08-10T23:25:38.027Z,31.67
2018-08-10T23:30:42.009Z,31.69
2018-08-10T23:35:46.404Z,31.54
2018-08-10T23:40:50.229Z,31.30
2018-08-10T23:45:54.071Z,30.92
2018-08-10T23:50:57.813Z,32.01
2018-08-10T23:56:03.009Z,32.04
